CheckWX is a tool to help pilots better visualize weather data.  It is not intended as a substitute for an official pre-flight weather briefing.

05:24:24 UTC

KSHV TAF
Shreveport Regional Airport
Shreveport, Louisiana, USA
KSHV 230111Z 2301/2324 18005KT P6SM FEW250 FM231500 18005KT P6SM SCT035 FM231800 14009KT P6SM VCTS BKN050CB FM232300 13007KT P6SM SCT250

Aug-23@
01:00 UTC

Aug-23 @ 01:00 UTC

Aug-23@
15:00 UTC

Aug-23 @ 15:00 UTC

KSHV 230111Z 2301/2324 18005KT P6SM FEW250
Wind
  • 180° at 5 KTS
Cloud Levels
  • Few at 25,000' AGL

Aug-23@
15:00 UTC

Aug-23 @ 15:00 UTC

Aug-23@
18:00 UTC

Aug-23 @ 18:00 UTC

FM231500 18005KT P6SM SCT035

From

From Standard forecast or significant change

Wind
  • 180° at 5 KTS
Cloud Levels
  • Scattered at 3,500' AGL

Aug-23@
18:00 UTC

Aug-23 @ 18:00 UTC

Aug-23@
23:00 UTC

Aug-23 @ 23:00 UTC

FM231800 14009KT P6SM VCTS BKN050CB

From

From Standard forecast or significant change

Wind
  • 140° at 9 KTS
Conditions
Area Thunderstorm
Cloud Levels
  • Broken at 5,000' AGL

Aug-23@
23:00 UTC

Aug-23 @ 23:00 UTC

Aug-24@
00:00 UTC

Aug-24 @ 00:00 UTC

FM232300 13007KT P6SM SCT250

From

From Standard forecast or significant change

Wind
  • 130° at 7 KTS
Cloud Levels
  • Scattered at 25,000' AGL